X  Cerrar Datos meteorológicos de aviación METAR     EHBK Maastricht Aachen Airport
Temperatura
12°C Temperatura
12°C Punto de rocío
100% Humedad



Viento
4 M/S
8 MPH
13 KM/H
7 NUDO



230°
SO
Condiciones actuales

Niebla Niebla
Presión 1015.92 (hPa) - 30 (inHg)
Visibilidad 1.6 (milla) - 2.6 (km)
Aeropuerto
Código de aeropuerto EHBK

localidad: Maastricht Aachen Airport
Distancia: 26 (km)

Metar:
EHBK 250455Z AUTO 23007KT 200V280 2600 BR BKN001/// OVC002/// 12/12 Q1016 NOSIG

Hora: 25-05-2024 06:55 CEST